Time;durP1;ratioP1;P1;durP2;ratioP2;P2;SDS_P1;SDS_P2;PMS_P1;PMS_P2;Temp;Humidity;BMP_temperature;BMP_pressure;BME280_temperature;BME280_humidity;BME280_pressure;Samples;Min_cycle;Max_cycle;Signal;HPM_P1;HPM_P2
2022/07/12 00:00:08;;;;;;;1.80;1.50;;;;;;;19.16;60.25;100186.50;345278;28;1868;-75
2022/07/12 00:00:20;;;;;;;1.83;1.50;;;;;;;19.15;60.39;100180.34;345723;28;1832;-74
2022/07/12 00:00:32;;;;;;;1.70;1.60;;;;;;;19.15;60.65;100190.91;346422;28;1056;-75
2022/07/12 00:00:44;;;;;;;2.33;1.70;;;;;;;19.16;60.89;100181.22;346479;28;1858;-75
2022/07/12 00:00:56;;;;;;;2.35;1.60;;;;;;;19.15;60.52;100188.25;345204;28;1279;-75
2022/07/12 00:01:08;;;;;;;1.98;1.52;;;;;;;19.16;60.60;100187.34;346406;28;2037;-75
2022/07/12 00:01:20;;;;;;;2.38;1.40;;;;;;;19.16;60.68;100187.34;345253;28;2104;-74
2022/07/12 00:01:32;;;;;;;2.05;1.50;;;;;;;19.17;60.62;100182.91;346044;28;1940;-74
2022/07/12 00:01:44;;;;;;;2.35;1.50;;;;;;;19.15;60.37;100180.34;346522;28;1165;-74
2022/07/12 00:01:56;;;;;;;2.35;1.52;;;;;;;19.15;60.67;100177.72;346601;28;1240;-75
2022/07/12 00:02:08;;;;;;;2.40;1.52;;;;;;;19.16;60.64;100184.69;346134;28;1108;-75
2022/07/12 00:02:20;;;;;;;1.70;1.50;;;;;;;19.18;60.86;100189.03;345281;28;4118;-75
2022/07/12 00:02:33;;;;;;;1.60;1.50;;;;;;;19.19;60.78;100190.72;346006;28;1889;-75
2022/07/12 00:02:45;;;;;;;1.70;1.60;;;;;;;19.16;61.01;100183.84;344936;28;2137;-75
2022/07/12 00:02:57;;;;;;;1.65;1.52;;;;;;;19.15;61.37;100184.78;346071;28;1298;-75
2022/07/12 00:03:10;;;;;;;1.90;1.45;;;;;;;19.14;61.48;100189.22;346335;28;1242;-74
2022/07/12 00:03:22;;;;;;;1.77;1.42;;;;;;;19.15;61.68;100188.25;345238;28;1815;-75
2022/07/12 00:03:34;;;;;;;1.50;1.40;;;;;;;19.15;61.20;100188.25;344832;28;1163;-75
2022/07/12 00:03:47;;;;;;;1.70;1.45;;;;;;;19.17;61.07;100188.16;344842;28;1261;-74
2022/07/12 00:03:59;;;;;;;1.85;1.50;;;;;;;19.18;61.17;100189.88;345970;28;1829;-75
2022/07/12 00:04:11;;;;;;;1.80;1.50;;;;;;;19.18;61.05;100179.34;346242;28;1029;-74
2022/07/12 00:04:24;;;;;;;1.65;1.55;;;;;;;19.19;61.05;100190.72;344820;28;1043;-75
2022/07/12 00:04:36;;;;;;;1.70;1.60;;;;;;;19.18;61.02;100178.50;344728;28;1080;-75
2022/07/12 00:04:48;;;;;;;1.73;1.63;;;;;;;19.15;61.08;100190.91;344963;28;1178;-75
2022/07/12 00:05:00;;;;;;;1.65;1.50;;;;;;;19.14;61.33;100189.22;344861;28;1290;-74
2022/07/12 00:05:12;;;;;;;1.70;1.52;;;;;;;19.13;61.27;100186.66;345017;28;2127;-75
2022/07/12 00:05:24;;;;;;;2.25;1.60;;;;;;;19.13;60.93;100192.78;345940;28;1644;-74
2022/07/12 00:05:36;;;;;;;2.13;1.60;;;;;;;19.12;61.08;100185.81;346290;28;1063;-75
2022/07/12 00:05:48;;;;;;;2.85;1.58;;;;;;;19.11;60.78;100189.38;346317;28;1174;-75
2022/07/12 00:06:01;;;;;;;2.38;1.50;;;;;;;19.12;60.80;100180.56;345768;28;1326;-75
2022/07/12 00:06:13;;;;;;;3.10;1.58;;;;;;;19.12;60.93;100196.38;346294;28;1187;-75
2022/07/12 00:06:25;;;;;;;3.15;1.60;;;;;;;19.18;61.12;100189.88;345596;28;1947;-75
2022/07/12 00:06:37;;;;;;;2.83;1.60;;;;;;;19.19;61.20;100190.72;345765;28;1267;-75
2022/07/12 00:06:49;;;;;;;2.17;1.48;;;;;;;19.19;61.09;100188.09;345167;28;1351;-75
2022/07/12 00:07:01;;;;;;;2.30;1.50;;;;;;;19.20;61.09;100192.44;345946;28;1265;-75
2022/07/12 00:07:13;;;;;;;1.75;1.50;;;;;;;19.19;61.44;100180.19;345747;28;1718;-75
2022/07/12 00:07:25;;;;;;;2.65;1.40;;;;;;;19.17;61.36;100188.16;345880;28;1599;-75
2022/07/12 00:07:37;;;;;;;3.55;1.55;;;;;;;19.18;60.95;100186.41;346262;28;1223;-74
2022/07/12 00:07:49;;;;;;;2.85;1.52;;;;;;;19.13;60.96;100182.22;346263;28;1146;-74
2022/07/12 00:08:01;;;;;;;3.00;1.63;;;;;;;19.14;61.07;100183.94;346058;28;1260;-74
2022/07/12 00:08:13;;;;;;;3.13;1.50;;;;;;;19.15;61.10;100184.78;345614;28;1881;-75
2022/07/12 00:08:25;;;;;;;4.03;1.60;;;;;;;19.12;60.94;100185.81;345727;28;1475;-74
2022/07/12 00:08:38;;;;;;;3.15;1.50;;;;;;;19.12;61.00;100182.34;346046;28;1054;-74
2022/07/12 00:08:50;;;;;;;2.00;1.52;;;;;;;19.11;61.20;100189.38;345939;28;1151;-75
2022/07/12 00:09:02;;;;;;;1.88;1.50;;;;;;;19.11;61.32;100193.81;346186;28;1326;-75
2022/07/12 00:09:14;;;;;;;1.63;1.52;;;;;;;19.10;61.33;100185.06;345689;28;1787;-75
2022/07/12 00:09:26;;;;;;;1.70;1.60;;;;;;;19.09;61.49;100191.25;346000;28;1971;-75
2022/07/12 00:09:38;;;;;;;2.60;1.70;;;;;;;19.08;61.62;100192.22;346056;28;1269;-75
2022/07/12 00:09:50;;;;;;;2.50;1.65;;;;;;;19.08;61.50;100189.56;346164;28;1182;-75
2022/07/12 00:10:03;;;;;;;1.85;1.52;;;;;;;19.10;61.36;100186.88;345980;28;1503;-75
2022/07/12 00:10:15;;;;;;;1.80;1.50;;;;;;;19.10;61.01;100192.97;345497;28;1739;-74
2022/07/12 00:10:27;;;;;;;1.98;1.50;;;;;;;19.10;61.28;100187.69;345050;28;1758;-75
2022/07/12 00:10:39;;;;;;;2.60;1.60;;;;;;;19.09;61.46;100191.25;346104;28;1055;-74
2022/07/12 00:10:51;;;;;;;2.30;1.60;;;;;;;19.10;61.16;100187.69;346106;28;1097;-74
2022/07/12 00:11:04;;;;;;;1.60;1.50;;;;;;;19.10;61.27;100187.69;345983;28;1377;-74
2022/07/12 00:11:16;;;;;;;1.67;1.40;;;;;;;19.09;61.26;100186.00;345200;28;1943;-75
2022/07/12 00:11:28;;;;;;;2.20;1.40;;;;;;;19.08;61.07;100189.56;346208;28;1882;-74
2022/07/12 00:11:40;;;;;;;1.67;1.50;;;;;;;19.08;61.08;100189.56;346184;28;1270;-75
2022/07/12 00:11:52;;;;;;;1.83;1.60;;;;;;;19.10;60.73;100184.22;345638;28;1866;-75
2022/07/12 00:12:04;;;;;;;1.70;1.60;;;;;;;19.09;60.97;100185.16;345711;28;1316;-75
2022/07/12 00:12:16;;;;;;;1.83;1.50;;;;;;;19.08;60.67;100189.56;345266;28;1826;-74
2022/07/12 00:12:28;;;;;;;1.60;1.50;;;;;;;19.09;60.81;100186.00;345361;28;1794;-75
2022/07/12 00:12:41;;;;;;;1.80;1.70;;;;;;;19.09;60.77;100199.16;344820;28;1055;-75
2022/07/12 00:12:54;;;;;;;1.83;1.60;;;;;;;19.08;61.22;100184.31;344751;28;1315;-75
2022/07/12 00:13:06;;;;;;;2.50;1.60;;;;;;;19.07;60.88;100187.88;343644;28;1073;-75
2022/07/12 00:13:18;;;;;;;2.30;1.52;;;;;;;19.06;61.44;100190.63;343327;28;1948;-74
2022/07/12 00:13:30;;;;;;;1.60;1.50;;;;;;;19.06;61.22;100188.81;344933;28;1828;-75
2022/07/12 00:13:42;;;;;;;1.50;1.40;;;;;;;19.07;60.87;100194.94;344813;28;1883;-75
2022/07/12 00:13:54;;;;;;;1.52;1.42;;;;;;;19.06;61.06;100191.47;345500;28;1604;-75
2022/07/12 00:14:06;;;;;;;1.70;1.60;;;;;;;19.06;61.24;100191.47;346233;28;1043;-75
2022/07/12 00:14:18;;;;;;;1.95;1.65;;;;;;;19.07;60.95;100198.41;345209;28;1858;-75
2022/07/12 00:14:31;;;;;;;1.75;1.58;;;;;;;19.06;61.04;100190.63;344436;28;1786;-75
2022/07/12 00:14:43;;;;;;;1.60;1.50;;;;;;;19.05;61.03;100195.03;344998;28;1155;-74
2022/07/12 00:14:55;;;;;;;1.75;1.50;;;;;;;19.03;61.39;100196.91;344768;28;1123;-75
2022/07/12 00:15:07;;;;;;;3.33;1.60;;;;;;;19.03;61.36;100190.78;344604;28;2410;-75
2022/07/12 00:15:20;;;;;;;3.45;1.63;;;;;;;19.04;61.31;100195.97;346063;28;1698;-74
2022/07/12 00:15:32;;;;;;;2.13;1.70;;;;;;;19.05;61.15;100192.38;346146;28;1156;-75
2022/07/12 00:15:44;;;;;;;2.08;1.60;;;;;;;19.06;60.82;100191.47;346162;28;1120;-75
2022/07/12 00:15:57;;;;;;;1.75;1.55;;;;;;;19.06;60.88;100191.47;345877;28;1271;-75
2022/07/12 00:16:09;;;;;;;1.80;1.52;;;;;;;19.08;60.76;100194.84;346262;28;1017;-75
2022/07/12 00:16:22;;;;;;;1.90;1.50;;;;;;;19.08;60.99;100191.38;345142;28;1892;-75
2022/07/12 00:16:34;;;;;;;1.52;1.40;;;;;;;19.09;60.75;100199.16;346105;28;1154;-75
2022/07/12 00:16:46;;;;;;;1.67;1.58;;;;;;;19.08;60.68;100184.31;346265;28;1189;-75
2022/07/12 00:16:59;;;;;;;1.70;1.60;;;;;;;19.08;60.59;100188.75;346147;28;1318;-75
2022/07/12 00:17:11;;;;;;;1.80;1.70;;;;;;;19.07;60.43;100187.88;346021;28;1952;-75
2022/07/12 00:17:23;;;;;;;2.00;1.63;;;;;;;19.07;60.48;100187.88;345520;28;2001;-75
2022/07/12 00:17:35;;;;;;;2.08;1.63;;;;;;;19.07;61.17;100190.50;345104;28;2014;-75
2022/07/12 00:17:47;;;;;;;1.88;1.70;;;;;;;19.06;61.04;100191.47;346167;28;1138;-75
2022/07/12 00:17:59;;;;;;;2.20;1.60;;;;;;;19.07;61.15;100190.50;346088;28;1402;-75
2022/07/12 00:18:11;;;;;;;2.33;1.60;;;;;;;19.07;61.71;100193.13;346263;28;1124;-75
2022/07/12 00:18:24;;;;;;;2.42;1.60;;;;;;;19.07;61.80;100193.13;346129;28;1065;-74
2022/07/12 00:18:36;;;;;;;1.90;1.50;;;;;;;19.06;61.77;100193.25;346170;28;1136;-75
2022/07/12 00:18:48;;;;;;;1.80;1.48;;;;;;;19.05;61.87;100189.75;346268;28;1011;-75
2022/07/12 00:19:00;;;;;;;1.80;1.60;;;;;;;19.05;61.65;100189.75;346446;28;1245;-75
2022/07/12 00:19:12;;;;;;;2.35;1.60;;;;;;;19.05;61.80;100192.38;345714;28;1697;-75
2022/07/12 00:19:24;;;;;;;2.33;1.70;;;;;;;19.04;61.60;100188.06;345564;28;1721;-75
2022/07/12 00:19:36;;;;;;;2.13;1.80;;;;;;;19.02;61.71;100192.56;346336;28;1204;-75
2022/07/12 00:19:48;;;;;;;2.40;1.85;;;;;;;19.03;61.61;100196.06;346162;28;1107;-75
2022/07/12 00:20:00;;;;;;;2.50;1.80;;;;;;;19.02;61.51;100192.56;345606;28;2218;-75
2022/07/12 00:20:12;;;;;;;1.80;1.60;;;;;;;19.03;61.52;100196.91;345089;28;1666;-75
2022/07/12 00:20:24;;;;;;;1.50;1.40;;;;;;;19.03;61.25;100196.06;346025;28;2001;-75
2022/07/12 00:20:37;;;;;;;1.45;1.35;;;;;;;19.00;61.23;100193.63;346199;28;1028;-75
2022/07/12 00:20:49;;;;;;;1.60;1.50;;;;;;;18.99;61.24;100197.19;345397;28;1177;-75
2022/07/12 00:21:01;;;;;;;2.00;1.70;;;;;;;18.95;61.30;100197.38;345596;28;1352;-75
2022/07/12 00:21:13;;;;;;;2.75;1.70;;;;;;;18.96;61.18;100195.56;345096;28;1758;-75
2022/07/12 00:21:25;;;;;;;2.58;1.67;;;;;;;18.93;61.25;100190.47;344840;28;1691;-75
2022/07/12 00:21:37;;;;;;;1.70;1.60;;;;;;;18.92;61.15;100194.06;346226;28;1078;-75
2022/07/12 00:21:49;;;;;;;1.60;1.50;;;;;;;18.91;61.43;100197.63;346425;28;1234;-75
2022/07/12 00:22:01;;;;;;;1.65;1.50;;;;;;;18.91;61.44;100197.63;346312;28;1253;-75
2022/07/12 00:22:13;;;;;;;1.90;1.53;;;;;;;18.91;61.46;100192.34;345679;28;1923;-74
2022/07/12 00:22:28;;;;;;;2.20;1.80;;;;;;;18.91;61.50;100193.22;345973;28;1569;-75
2022/07/12 00:22:40;;;;;;;1.90;1.70;;;;;;;18.92;61.24;100199.34;344933;28;1038;-75
2022/07/12 00:22:52;;;;;;;1.70;1.60;;;;;;;18.91;61.19;100190.59;344700;28;2306;-76
2022/07/12 00:23:05;;;;;;;1.80;1.70;;;;;;;18.91;61.34;100190.59;345324;28;1742;-75
2022/07/12 00:23:17;;;;;;;1.77;1.67;;;;;;;18.91;61.62;100187.09;345280;28;1725;-75
2022/07/12 00:23:29;;;;;;;1.80;1.70;;;;;;;18.93;61.68;100193.97;345640;28;1807;-75
2022/07/12 00:23:41;;;;;;;1.73;1.63;;;;;;;18.90;61.44;100190.66;346481;28;1014;-75
2022/07/12 00:23:53;;;;;;;2.08;1.67;;;;;;;18.90;61.80;100195.94;346557;28;1271;-74
2022/07/12 00:24:05;;;;;;;1.83;1.60;;;;;;;18.90;61.62;100195.94;346264;28;1307;-75
2022/07/12 00:24:17;;;;;;;1.70;1.60;;;;;;;18.89;61.73;100196.84;345341;28;1960;-75
2022/07/12 00:24:29;;;;;;;1.80;1.70;;;;;;;18.90;61.68;100193.31;345675;28;2061;-75
2022/07/12 00:24:41;;;;;;;2.05;1.70;;;;;;;18.93;61.75;100190.47;346465;28;1039;-75
2022/07/12 00:24:53;;;;;;;2.72;1.70;;;;;;;18.97;61.58;100197.25;346120;28;1445;-75
2022/07/12 00:25:05;;;;;;;3.17;1.70;;;;;;;18.98;61.77;100193.69;346327;28;1331;-75
2022/07/12 00:25:17;;;;;;;3.20;1.73;;;;;;;18.96;61.87;100188.50;345626;28;1940;-75
2022/07/12 00:25:30;;;;;;;2.33;1.63;;;;;;;18.96;61.82;100190.31;345509;28;1863;-75
2022/07/12 00:25:42;;;;;;;2.10;1.60;;;;;;;18.98;61.67;100193.69;346341;28;1252;-74
2022/07/12 00:25:54;;;;;;;2.42;1.70;;;;;;;18.98;61.78;100191.06;345694;28;2072;-75
2022/07/12 00:26:06;;;;;;;2.72;1.70;;;;;;;18.99;61.94;100195.38;345133;28;1039;-74
2022/07/12 00:26:18;;;;;;;2.42;1.60;;;;;;;19.00;61.75;100194.47;345068;28;1705;-76
2022/07/12 00:26:30;;;;;;;1.80;1.50;;;;;;;19.01;61.83;100193.50;345306;28;1835;-75
2022/07/12 00:26:42;;;;;;;3.40;1.80;;;;;;;19.00;61.83;100186.56;345028;28;1826;-75
2022/07/12 00:26:54;;;;;;;3.85;1.70;;;;;;;18.99;61.80;100195.38;344857;28;1177;-75
2022/07/12 00:27:06;;;;;;;3.63;1.70;;;;;;;18.99;62.10;100192.75;344882;28;1057;-75
2022/07/12 00:27:18;;;;;;;1.70;1.60;;;;;;;18.99;62.03;100194.53;344831;28;1915;-74
2022/07/12 00:27:30;;;;;;;2.10;1.60;;;;;;;18.99;61.84;100190.09;345563;28;1868;-75
2022/07/12 00:27:42;;;;;;;2.50;1.63;;;;;;;19.00;61.59;100194.47;345406;28;1814;-75
2022/07/12 00:27:54;;;;;;;2.28;1.70;;;;;;;19.01;62.21;100193.50;346475;28;1077;-75
2022/07/12 00:28:06;;;;;;;1.77;1.63;;;;;;;19.01;62.24;100196.13;346482;28;1030;-75
2022/07/12 00:28:19;;;;;;;2.17;1.65;;;;;;;19.01;61.84;100198.78;345130;28;1636;-75
2022/07/12 00:28:31;;;;;;;2.38;1.65;;;;;;;19.03;61.56;100191.63;345491;28;2100;-75
2022/07/12 00:28:44;;;;;;;2.28;1.70;;;;;;;19.06;61.46;100199.38;345297;28;1257;-75
2022/07/12 00:28:57;;;;;;;1.75;1.65;;;;;;;19.07;61.32;100198.41;345108;28;1914;-75
2022/07/12 00:29:09;;;;;;;2.00;1.70;;;;;;;19.09;61.26;100195.69;346468;28;1062;-75
2022/07/12 00:29:22;;;;;;;2.00;1.58;;;;;;;19.07;60.96;100198.41;345492;28;1712;-75
2022/07/12 00:29:34;;;;;;;2.20;1.60;;;;;;;19.09;60.71;100196.53;346261;28;1856;-75
2022/07/12 00:29:46;;;;;;;2.00;1.58;;;;;;;19.09;60.77;100191.25;346573;28;1206;-74
2022/07/12 00:29:58;;;;;;;2.15;1.60;;;;;;;19.10;60.74;100187.69;346496;28;1266;-75
2022/07/12 00:30:10;;;;;;;1.90;1.63;;;;;;;19.10;60.73;100195.59;345620;28;1982;-75
2022/07/12 00:30:23;;;;;;;2.40;1.70;;;;;;;19.11;60.92;100193.81;346433;28;1858;-75
2022/07/12 00:30:35;;;;;;;2.50;1.75;;;;;;;19.12;61.06;100191.09;345437;28;1205;-74
2022/07/12 00:30:47;;;;;;;2.13;1.70;;;;;;;19.12;61.11;100191.09;345151;28;1292;-75
2022/07/12 00:30:59;;;;;;;2.50;1.73;;;;;;;19.14;61.00;100191.00;345600;28;1265;-75
2022/07/12 00:31:11;;;;;;;3.05;1.60;;;;;;;19.14;60.81;100189.22;346345;28;1070;-74
2022/07/12 00:31:24;;;;;;;4.25;1.50;;;;;;;19.15;60.69;100196.16;345959;28;1713;-74
2022/07/12 00:31:36;;;;;;;3.00;1.50;;;;;;;19.16;60.68;100192.59;345002;28;1202;-74
2022/07/12 00:31:48;;;;;;;1.80;1.70;;;;;;;19.18;60.89;100191.69;345115;28;1124;-75
2022/07/12 00:32:00;;;;;;;1.70;1.60;;;;;;;19.19;61.08;100193.34;345421;28;2017;-75
2022/07/12 00:32:12;;;;;;;1.60;1.50;;;;;;;19.19;61.10;100190.72;345189;28;1581;-75
2022/07/12 00:32:24;;;;;;;1.60;1.50;;;;;;;19.18;60.82;100191.69;345124;28;1918;-75
2022/07/12 00:32:36;;;;;;;1.65;1.50;;;;;;;19.18;60.74;100194.31;345961;28;1200;-74
2022/07/12 00:32:48;;;;;;;1.75;1.50;;;;;;;19.16;60.92;100192.59;346485;28;1046;-75
2022/07/12 00:33:01;;;;;;;2.20;1.50;;;;;;;19.17;60.86;100188.16;346364;28;1290;-75
2022/07/12 00:33:13;;;;;;;2.38;1.42;;;;;;;19.16;61.14;100182.06;345912;28;1848;-75
2022/07/12 00:33:26;;;;;;;2.08;1.52;;;;;;;19.14;60.99;100185.75;344976;28;1648;-75
2022/07/12 00:33:38;;;;;;;2.10;1.60;;;;;;;19.13;61.00;100187.50;345302;28;1113;-75
2022/07/12 00:33:50;;;;;;;3.20;1.60;;;;;;;19.13;60.97;100187.50;345711;28;1890;-75
2022/07/12 00:34:02;;;;;;;3.05;1.55;;;;;;;19.13;60.74;100190.13;346097;28;1140;-74
2022/07/12 00:34:13;;;;;;;2.40;1.60;;;;;;;19.16;60.59;100189.13;345706;28;1731;-74
2022/07/12 00:34:25;;;;;;;1.63;1.50;;;;;;;19.15;60.80;100185.63;345917;28;1674;-74
2022/07/12 00:34:37;;;;;;;1.55;1.45;;;;;;;19.16;60.78;100189.97;346189;28;1242;-75
2022/07/12 00:34:50;;;;;;;1.63;1.52;;;;;;;19.18;60.72;100181.13;346442;28;1083;-75
2022/07/12 00:35:02;;;;;;;2.08;1.65;;;;;;;19.16;60.49;100187.34;346150;28;1322;-75
2022/07/12 00:35:15;;;;;;;2.28;1.77;;;;;;;19.17;60.63;100182.91;345453;28;1932;-75
2022/07/12 00:35:27;;;;;;;2.55;1.70;;;;;;;19.17;60.64;100188.16;344784;28;1865;-75
2022/07/12 00:35:39;;;;;;;2.15;1.50;;;;;;;19.18;60.53;100189.03;344349;28;1167;-75
2022/07/12 00:35:51;;;;;;;2.28;1.40;;;;;;;19.19;60.46;100190.72;343870;28;2610;-75
2022/07/12 00:36:03;;;;;;;2.28;1.40;;;;;;;19.19;60.61;100190.72;345021;28;1371;-75
2022/07/12 00:36:15;;;;;;;3.08;1.42;;;;;;;19.19;60.51;100188.09;345206;28;2040;-75
2022/07/12 00:36:27;;;;;;;3.20;1.60;;;;;;;19.21;60.68;100188.84;344767;28;1714;-75
2022/07/12 00:36:39;;;;;;;2.15;1.50;;;;;;;19.20;60.87;100187.16;344826;28;1067;-75
2022/07/12 00:36:51;;;;;;;1.70;1.60;;;;;;;19.19;60.80;100178.38;344355;28;1998;-75
2022/07/12 00:37:03;;;;;;;2.03;1.70;;;;;;;19.20;60.71;100187.16;344689;28;1580;-75
2022/07/12 00:37:15;;;;;;;2.10;1.80;;;;;;;19.20;60.86;100192.44;343019;28;1976;-75
2022/07/12 00:37:27;;;;;;;2.28;1.80;;;;;;;19.19;60.77;100181.03;343849;28;1832;-75
2022/07/12 00:37:39;;;;;;;2.33;1.70;;;;;;;19.22;60.49;100185.28;344985;28;2072;-74
2022/07/12 00:37:51;;;;;;;1.88;1.50;;;;;;;19.22;60.49;100182.66;344762;28;1179;-75
2022/07/12 00:38:03;;;;;;;1.67;1.52;;;;;;;19.22;60.51;100185.28;345890;28;1305;-75
2022/07/12 00:38:15;;;;;;;1.60;1.50;;;;;;;19.23;60.63;100184.31;345344;28;1952;-75
2022/07/12 00:38:27;;;;;;;1.60;1.50;;;;;;;19.24;60.52;100186.03;346097;28;1805;-75
2022/07/12 00:38:39;;;;;;;1.90;1.58;;;;;;;19.25;60.62;100185.09;344939;28;1336;-75
2022/07/12 00:38:51;;;;;;;2.17;1.70;;;;;;;19.25;60.51;100180.66;345127;28;2564;-75
2022/07/12 00:39:03;;;;;;;1.80;1.70;;;;;;;19.27;60.71;100188.47;345931;28;1316;-75
2022/07/12 00:39:15;;;;;;;1.73;1.63;;;;;;;19.26;60.47;100184.16;345605;28;1800;-75
2022/07/12 00:39:27;;;;;;;1.60;1.50;;;;;;;19.25;60.36;100185.09;345211;28;1931;-75
2022/07/12 00:39:39;;;;;;;1.60;1.50;;;;;;;19.26;60.31;100176.25;345134;28;1049;-75
2022/07/12 00:39:51;;;;;;;1.98;1.65;;;;;;;19.26;60.21;100179.72;345179;28;1066;-75
2022/07/12 00:40:08;;;;;;;2.45;1.60;;;;;;;19.25;60.80;100190.34;345130;28;1783;-75
2022/07/12 00:40:20;;;;;;;2.13;1.60;;;;;;;19.26;60.69;100182.38;346014;28;1848;-74
2022/07/12 00:40:33;;;;;;;2.55;1.60;;;;;;;19.25;60.87;100182.44;346402;28;2514;-74
2022/07/12 00:40:44;;;;;;;3.22;1.58;;;;;;;19.25;60.92;100177.19;346434;28;1081;-74
2022/07/12 00:40:57;;;;;;;2.45;1.58;;;;;;;19.26;60.72;100182.38;346372;28;1243;-74
2022/07/12 00:41:09;;;;;;;2.55;1.42;;;;;;;19.26;60.63;100177.09;346585;28;1026;-74
2022/07/12 00:41:21;;;;;;;2.00;1.30;;;;;;;19.27;60.37;100177.94;345170;28;1749;-75
2022/07/12 00:41:33;;;;;;;1.80;1.30;;;;;;;19.28;60.70;100179.63;345865;28;1740;-75
2022/07/12 00:41:48;;;;;;;1.50;1.40;;;;;;;19.27;60.60;100184.03;346451;28;1287;-74
2022/07/12 00:42:00;;;;;;;2.00;1.50;;;;;;;19.27;60.55;100183.19;346421;28;1319;-75
2022/07/12 00:42:12;;;;;;;1.80;1.50;;;;;;;19.25;60.42;100180.66;345863;28;1638;-75
2022/07/12 00:42:26;;;;;;;2.35;1.50;;;;;;;19.23;60.53;100182.53;345332;28;1973;-74
2022/07/12 00:42:38;;;;;;;2.33;1.50;;;;;;;19.22;60.67;100186.13;344960;28;1057;-75
2022/07/12 00:42:50;;;;;;;1.58;1.48;;;;;;;19.21;60.98;100176.50;345142;28;1121;-74
2022/07/12 00:43:03;;;;;;;1.60;1.50;;;;;;;19.20;61.11;100185.38;345714;28;1831;-75
2022/07/12 00:43:15;;;;;;;1.70;1.60;;;;;;;19.20;60.78;100179.25;346331;28;1601;-75
2022/07/12 00:43:27;;;;;;;2.55;1.60;;;;;;;19.19;60.75;100175.75;346405;28;1069;-74
2022/07/12 00:43:39;;;;;;;2.85;1.60;;;;;;;19.18;60.64;100179.34;346339;28;1074;-74
2022/07/12 00:43:52;;;;;;;2.15;1.50;;;;;;;19.19;60.94;100188.09;345151;28;1121;-74
2022/07/12 00:44:04;;;;;;;2.92;1.60;;;;;;;19.20;60.86;100180.09;346198;28;1058;-74
2022/07/12 00:44:16;;;;;;;2.90;1.65;;;;;;;19.19;61.00;100180.19;345511;28;1854;-74
2022/07/12 00:44:30;;;;;;;3.55;1.70;;;;;;;19.18;60.99;100178.50;345843;28;1795;-74
2022/07/12 00:44:42;;;;;;;2.50;1.70;;;;;;;19.16;61.22;100181.22;345583;28;2107;-74
2022/07/12 00:44:54;;;;;;;2.20;1.60;;;;;;;19.15;61.05;100184.78;346457;28;1175;-74
2022/07/12 00:45:08;;;;;;;1.85;1.52;;;;;;;19.15;61.04;100179.50;345477;28;1868;-74
2022/07/12 00:45:20;;;;;;;2.35;1.55;;;;;;;19.15;61.20;100183.00;345648;28;1895;-74
2022/07/12 00:45:32;;;;;;;2.30;1.60;;;;;;;19.15;61.15;100185.63;346355;28;1218;-75
2022/07/12 00:45:44;;;;;;;2.33;1.60;;;;;;;19.15;61.37;100180.34;345962;28;969;-74
2022/07/12 00:45:57;;;;;;;2.20;1.60;;;;;;;19.14;61.79;100183.94;345188;28;1321;-74
2022/07/12 00:46:09;;;;;;;2.13;1.70;;;;;;;19.13;61.85;100182.22;346442;28;1061;-74
2022/07/12 00:46:23;;;;;;;2.00;1.70;;;;;;;19.13;61.69;100184.88;345570;28;1915;-75
2022/07/12 00:46:35;;;;;;;2.20;1.73;;;;;;;19.15;61.67;100177.72;346289;28;1077;-74
2022/07/12 00:46:47;;;;;;;1.75;1.65;;;;;;;19.14;61.54;100173.41;345640;28;1973;-74
2022/07/12 00:47:01;;;;;;;1.77;1.58;;;;;;;19.14;61.49;100173.41;345868;28;1221;-75
2022/07/12 00:47:43;;;;;;;3.00;1.60;;;;;;;19.14;61.92;100183.94;346279;28;2002;-74
2022/07/12 00:47:55;;;;;;;1.75;1.63;;;;;;;19.14;61.89;100183.94;345032;28;1477;-74
2022/07/12 00:48:09;;;;;;;1.70;1.60;;;;;;;19.16;61.92;100182.06;346375;28;1337;-75
2022/07/12 00:48:21;;;;;;;2.85;1.60;;;;;;;19.18;61.71;100181.13;345152;28;1864;-74
2022/07/12 00:48:33;;;;;;;2.70;1.60;;;;;;;19.18;61.41;100179.34;345886;28;1839;-74
2022/07/12 00:48:45;;;;;;;1.83;1.60;;;;;;;19.16;61.70;100175.94;345202;28;1022;-74
2022/07/12 00:48:57;;;;;;;2.83;1.67;;;;;;;19.16;61.68;100176.78;345712;28;1915;-75
2022/07/12 00:49:09;;;;;;;2.80;1.70;;;;;;;19.16;61.95;100176.78;346531;28;1078;-74
2022/07/12 00:49:23;;;;;;;2.58;1.70;;;;;;;19.16;61.93;100176.78;346466;28;1050;-74
2022/07/12 00:49:36;;;;;;;2.40;1.73;;;;;;;19.15;61.84;100175.09;346586;28;1042;-74
2022/07/12 00:49:48;;;;;;;2.55;1.65;;;;;;;19.15;61.90;100175.09;346587;28;827;-74
2022/07/12 00:50:00;;;;;;;3.20;1.75;;;;;;;19.15;61.79;100185.63;346023;28;1578;-74
2022/07/12 00:50:16;;;;;;;3.00;1.80;;;;;;;19.17;61.60;100182.91;345489;28;1872;-74
2022/07/12 00:50:28;;;;;;;1.75;1.65;;;;;;;19.18;61.46;100176.72;345457;28;1778;-74
2022/07/12 00:50:40;;;;;;;1.70;1.60;;;;;;;19.18;61.65;100181.97;346210;28;1130;-74
2022/07/12 00:50:52;;;;;;;1.90;1.80;;;;;;;19.18;61.92;100179.34;346207;28;1308;-74
2022/07/12 00:51:04;;;;;;;1.90;1.80;;;;;;;19.18;62.21;100179.34;346394;28;1684;-74
2022/07/12 00:51:18;;;;;;;2.30;1.80;;;;;;;19.18;62.26;100189.03;345504;28;2089;-75
2022/07/12 00:51:30;;;;;;;2.25;1.75;;;;;;;19.18;62.50;100178.50;346370;28;1832;-74
2022/07/12 00:51:43;;;;;;;2.80;1.60;;;;;;;19.18;62.54;100174.06;346002;28;1055;-74
2022/07/12 00:51:55;;;;;;;2.40;1.58;;;;;;;19.16;62.99;100187.34;345766;28;1805;-74
2022/07/12 00:52:07;;;;;;;2.67;1.60;;;;;;;19.18;62.72;100183.78;345991;28;1143;-74
2022/07/12 00:52:19;;;;;;;3.10;1.70;;;;;;;19.18;62.72;100170.59;345159;28;1935;-75
2022/07/12 00:52:31;;;;;;;2.63;1.75;;;;;;;19.16;62.65;100179.44;345168;28;1334;-75
2022/07/12 00:52:47;;;;;;;2.50;1.70;;;;;;;19.16;63.03;100174.16;346536;28;996;-75
2022/07/12 00:53:00;;;;;;;2.13;1.50;;;;;;;19.16;62.92;100175.94;345756;28;1338;-75
2022/07/12 00:53:13;;;;;;;2.05;1.50;;;;;;;19.16;62.70;100187.34;346445;28;1184;-75
2022/07/12 00:53:25;;;;;;;1.98;1.60;;;;;;;19.15;62.76;100177.72;345981;28;1716;-75
2022/07/12 00:53:37;;;;;;;2.08;1.60;;;;;;;19.16;62.81;100176.78;345800;28;1011;-75
2022/07/12 00:53:51;;;;;;;2.05;1.60;;;;;;;19.18;62.44;100178.50;346171;28;1082;-75
2022/07/12 00:54:04;;;;;;;1.92;1.50;;;;;;;19.17;62.35;100182.91;345482;28;1972;-75
2022/07/12 00:54:16;;;;;;;2.03;1.50;;;;;;;19.18;62.53;100178.50;345480;28;1948;-75
2022/07/12 00:54:28;;;;;;;1.70;1.60;;;;;;;19.18;62.79;100175.88;345085;28;1746;-75
2022/07/12 00:54:40;;;;;;;1.73;1.63;;;;;;;19.19;62.70;100185.44;346362;28;1278;-75
2022/07/12 00:54:52;;;;;;;1.80;1.70;;;;;;;19.20;62.15;100181.91;346178;28;1060;-75
2022/07/12 00:55:06;;;;;;;1.75;1.65;;;;;;;19.19;62.09;100175.75;346044;28;1541;-75
2022/07/12 00:55:20;;;;;;;1.67;1.58;;;;;;;19.18;61.77;100173.22;345530;28;2033;-74
2022/07/12 00:55:32;;;;;;;1.60;1.50;;;;;;;19.18;61.70;100178.50;345425;28;1851;-74
2022/07/12 00:55:44;;;;;;;1.70;1.60;;;;;;;19.18;61.86;100178.50;346248;28;1175;-75
2022/07/12 00:55:57;;;;;;;1.77;1.60;;;;;;;19.18;62.06;100174.06;346175;28;1343;-75
2022/07/12 00:56:09;;;;;;;1.75;1.52;;;;;;;19.19;61.98;100185.44;345877;28;1074;-75
2022/07/12 00:56:21;;;;;;;1.70;1.60;;;;;;;19.18;62.25;100178.50;344940;28;1852;-75
2022/07/12 00:56:33;;;;;;;1.70;1.60;;;;;;;19.18;62.41;100178.50;346090;28;1811;-76
2022/07/12 00:56:46;;;;;;;2.22;1.42;;;;;;;19.19;62.28;100185.44;346541;28;1027;-75
2022/07/12 00:56:58;;;;;;;2.35;1.45;;;;;;;19.16;61.98;100186.50;345759;28;1867;-74
2022/07/12 00:57:10;;;;;;;3.17;1.60;;;;;;;19.18;61.70;100175.88;346534;28;1313;-75
2022/07/12 00:57:22;;;;;;;2.65;1.60;;;;;;;19.18;61.77;100174.06;345385;28;1961;-75
2022/07/12 00:57:35;;;;;;;1.83;1.40;;;;;;;19.19;61.41;100175.75;345104;28;1974;-75
2022/07/12 00:57:49;;;;;;;1.40;1.30;;;;;;;19.18;61.57;100179.34;345208;28;2977;-74
2022/07/12 00:58:01;;;;;;;2.58;1.48;;;;;;;19.19;61.65;100175.75;345741;28;1806;-75
2022/07/12 00:58:13;;;;;;;3.00;1.60;;;;;;;19.20;61.43;100176.63;346359;28;1095;-75
2022/07/12 00:58:26;;;;;;;2.10;1.55;;;;;;;19.19;61.68;100174.91;345533;28;1828;-74
2022/07/12 00:58:39;;;;;;;1.58;1.45;;;;;;;19.20;61.59;100179.25;346211;28;1086;-74
2022/07/12 00:58:51;;;;;;;2.00;1.50;;;;;;;19.17;61.49;100172.34;346413;28;1148;-75
2022/07/12 00:59:03;;;;;;;3.05;1.50;;;;;;;19.16;61.31;100171.53;346397;28;1293;-75